Terminal Aerodrome Forecast
Issued by NWS

Home | Current Version | Previous Version | Graphics & Text | Print | Product List | Glossary On
Versions: 1 2 3 4 5 6 7 8 9 10 11 12 13 14 15 16 17 18 19 20 21 22 23 24 25 26 27 28 29 30 31 32 33 34 35 36
625
FTUS43 KGRB 280520
TAFRHI
TAF
KRHI 280520Z 2806/2906 25003KT P6SM BKN100
     FM281000 22003KT P6SM VCSH SCT040 BKN080
     FM281400 22008KT P6SM VCSH SCT040 BKN080 PROB30 2817/2821 4SM
      -TSRA BKN035CB
     FM282100 27010G17KT P6SM VCSH BKN040
     FM290100 27006KT P6SM VCSH BKN040=

USA.gov is the U.S. government's official web portal to all federal, state and local government web resources and services.